createdAt,value
2017-10-13T00:00:18.537Z,100598.65
2017-10-13T00:02:44.586Z,100597.41
2017-10-13T00:05:10.601Z,100598.68
2017-10-13T00:07:36.603Z,100599.14
2017-10-13T00:10:02.611Z,100609.77
2017-10-13T00:12:28.617Z,100610.66
2017-10-13T00:14:54.594Z,100615.34
2017-10-13T00:17:20.871Z,100614.49
2017-10-13T00:19:46.885Z,100615.77
2017-10-13T00:22:12.923Z,100608.55
2017-10-13T00:24:38.948Z,100609.83
2017-10-13T00:27:04.969Z,100611.11
2017-10-13T00:29:30.993Z,100609.01
2017-10-13T00:31:56.991Z,100614.13
2017-10-13T00:34:22.973Z,100617.11
2017-10-13T00:36:49.013Z,100612.45
2017-10-13T00:39:15.016Z,100614.98
2017-10-13T00:41:41.010Z,100614.55
2017-10-13T00:44:06.995Z,100610.31
2017-10-13T00:46:33.010Z,100615.86
2017-10-13T00:48:59.011Z,100612.88
2017-10-13T00:51:25.029Z,100618.45
2017-10-13T00:53:51.031Z,100619.30
2017-10-13T00:56:17.014Z,100613.33
2017-10-13T00:58:43.129Z,100619.30
2017-10-13T01:01:09.123Z,100619.30
2017-10-13T01:03:35.111Z,100618.05
2017-10-13T01:06:01.125Z,100622.35
2017-10-13T01:08:27.113Z,100627.02
2017-10-13T01:10:53.087Z,100621.50
2017-10-13T01:13:19.101Z,100611.69
2017-10-13T01:15:45.091Z,100611.26
2017-10-13T01:18:11.079Z,100612.53
2017-10-13T01:20:37.089Z,100608.73
2017-10-13T01:23:03.095Z,100615.55
2017-10-13T01:25:29.079Z,100615.58
2017-10-13T01:27:55.117Z,100615.98
2017-10-13T01:30:21.131Z,100618.99
2017-10-13T01:32:47.119Z,100613.05
2017-10-13T01:35:13.102Z,100613.48
2017-10-13T01:37:39.118Z,100618.17
2017-10-13T01:40:05.126Z,100613.48
2017-10-13T01:42:31.135Z,100613.91
2017-10-13T01:44:57.147Z,100612.68
2017-10-13T01:47:23.178Z,100620.33
2017-10-13T01:49:49.199Z,100617.77
2017-10-13T01:52:15.202Z,100616.03
2017-10-13T01:54:41.209Z,100625.02
2017-10-13T01:57:07.217Z,100617.80
2017-10-13T01:59:33.196Z,100625.05
2017-10-13T02:01:59.200Z,100615.23
2017-10-13T02:04:25.195Z,100623.37
2017-10-13T02:06:51.193Z,100616.98
2017-10-13T02:09:17.225Z,100618.25
2017-10-13T02:11:43.211Z,100622.52
2017-10-13T02:14:09.214Z,100626.78
2017-10-13T02:16:35.197Z,100627.21
2017-10-13T02:19:01.238Z,100623.37
2017-10-13T02:21:27.271Z,100624.65
2017-10-13T02:23:53.294Z,100622.55
2017-10-13T02:26:19.293Z,100624.67
2017-10-13T02:28:45.279Z,100623.86
2017-10-13T02:31:11.327Z,100623.42
2017-10-13T02:33:37.365Z,100628.89
2017-10-13T02:36:03.353Z,100639.86
2017-10-13T02:38:29.386Z,100624.56
2017-10-13T02:40:56.459Z,100636.73
2017-10-13T02:43:22.443Z,100636.70
2017-10-13T02:45:48.427Z,100634.97
2017-10-13T02:48:14.416Z,100628.15
2017-10-13T02:50:40.450Z,100624.28
2017-10-13T02:53:07.489Z,100624.95
2017-10-13T02:55:33.482Z,100623.63
2017-10-13T02:57:59.659Z,100619.06
2017-10-13T03:00:25.897Z,100618.46
2017-10-13T03:02:51.895Z,100624.88
2017-10-13T03:05:17.879Z,100625.91
2017-10-13T03:07:43.880Z,100627.00
2017-10-13T03:10:10.062Z,100621.26
2017-10-13T03:12:36.051Z,100628.05
2017-10-13T03:15:02.059Z,100629.93
2017-10-13T03:17:28.056Z,100620.60
2017-10-13T03:19:54.079Z,100628.75
2017-10-13T03:22:20.073Z,100625.84
2017-10-13T03:24:46.107Z,100635.13
2017-10-13T03:27:12.107Z,100638.41
2017-10-13T03:29:38.099Z,100636.99
2017-10-13T03:32:04.091Z,100628.80
2017-10-13T03:34:30.114Z,100633.31
2017-10-13T03:36:56.107Z,100638.75
2017-10-13T03:39:22.112Z,100631.31
2017-10-13T03:41:48.107Z,100643.70
2017-10-13T03:44:14.106Z,100646.22
2017-10-13T03:46:40.151Z,100652.36
2017-10-13T03:49:06.216Z,100650.16
2017-10-13T03:51:32.209Z,100649.21
2017-10-13T03:53:58.304Z,100646.83
2017-10-13T03:56:24.289Z,100648.98
2017-10-13T03:58:50.324Z,100647.37
2017-10-13T04:01:16.321Z,100650.17
2017-10-13T04:03:42.338Z,100654.60
2017-10-13T04:06:08.366Z,100653.42
2017-10-13T04:08:34.351Z,100653.95
2017-10-13T04:11:00.354Z,100652.42
2017-10-13T04:13:26.355Z,100651.27
2017-10-13T04:15:52.364Z,100660.36
2017-10-13T04:18:18.358Z,100643.84
2017-10-13T04:20:44.365Z,100648.69
2017-10-13T04:23:10.364Z,100650.58
2017-10-13T04:25:36.350Z,100649.86
2017-10-13T04:28:02.338Z,100653.39
2017-10-13T04:30:28.335Z,100648.77
2017-10-13T04:32:54.349Z,100645.01
2017-10-13T04:35:20.673Z,100643.47
2017-10-13T04:37:46.826Z,100637.60
2017-10-13T04:40:12.814Z,100635.52
2017-10-13T04:42:38.800Z,100642.49
2017-10-13T04:45:04.809Z,100640.91
2017-10-13T04:47:30.804Z,100642.20
2017-10-13T04:49:56.781Z,100640.02
2017-10-13T04:52:22.792Z,100645.88
2017-10-13T04:54:48.800Z,100640.86
2017-10-13T04:57:14.823Z,100642.28
2017-10-13T04:59:40.844Z,100641.79
2017-10-13T05:02:06.836Z,100642.27
2017-10-13T05:04:32.839Z,100648.83
2017-10-13T05:06:58.818Z,100653.56
2017-10-13T05:09:24.738Z,100650.48
2017-10-13T05:11:50.684Z,100652.70
2017-10-13T05:14:16.784Z,100647.85
2017-10-13T05:16:42.773Z,100660.72
2017-10-13T05:19:08.708Z,100658.75
2017-10-13T05:21:34.674Z,100665.00
2017-10-13T05:24:00.611Z,100667.31
2017-10-13T05:26:26.682Z,100671.30
2017-10-13T05:28:52.653Z,100682.62
2017-10-13T05:31:18.585Z,100679.28
2017-10-13T05:33:44.544Z,100677.26
2017-10-13T05:36:10.576Z,100685.90
2017-10-13T05:38:36.538Z,100691.11
2017-10-13T05:41:02.533Z,100688.23
2017-10-13T05:43:28.496Z,100690.03
2017-10-13T05:45:54.432Z,100682.02
2017-10-13T05:48:20.378Z,100684.23
2017-10-13T05:50:46.327Z,100682.60
2017-10-13T05:53:12.277Z,100677.12
2017-10-13T05:55:38.238Z,100693.48
2017-10-13T05:58:04.176Z,100690.56
2017-10-13T06:00:30.142Z,100694.56
2017-10-13T06:02:56.075Z,100691.64
2017-10-13T06:05:22.014Z,100691.75
2017-10-13T06:07:47.945Z,100693.53
2017-10-13T06:10:13.884Z,100701.33
2017-10-13T06:12:39.893Z,100698.41
2017-10-13T06:15:05.822Z,100694.20
2017-10-13T06:17:31.756Z,100702.89
2017-10-13T06:19:57.715Z,100700.33
2017-10-13T06:22:23.665Z,100704.22
2017-10-13T06:24:49.620Z,100707.30
2017-10-13T06:27:15.583Z,100711.22
2017-10-13T06:29:41.566Z,100703.17
2017-10-13T06:32:07.544Z,100705.34
2017-10-13T06:34:33.490Z,100702.84
2017-10-13T06:36:59.474Z,100704.62
2017-10-13T06:39:25.448Z,100708.06
2017-10-13T06:41:51.388Z,100709.84
2017-10-13T06:44:17.346Z,100707.31
2017-10-13T06:46:43.270Z,100711.65
2017-10-13T06:49:09.237Z,100713.39
2017-10-13T06:51:35.226Z,100713.45
2017-10-13T06:54:01.257Z,100713.52
2017-10-13T06:56:27.207Z,100714.41
2017-10-13T06:58:53.140Z,100708.00
2017-10-13T07:01:19.119Z,100711.05
2017-10-13T07:03:45.064Z,100722.19
2017-10-13T07:06:11.007Z,100724.84
2017-10-13T07:08:36.948Z,100721.00
2017-10-13T07:11:02.892Z,100719.34
2017-10-13T07:13:28.840Z,100718.09
2017-10-13T07:15:54.770Z,100721.97
2017-10-13T07:18:20.719Z,100722.46
2017-10-13T07:20:46.676Z,100723.31
2017-10-13T07:23:12.632Z,100719.08
2017-10-13T07:25:38.565Z,100718.64
2017-10-13T07:28:04.530Z,100715.69
2017-10-13T07:30:30.491Z,100719.08
2017-10-13T07:32:56.440Z,100721.70
2017-10-13T07:35:22.416Z,100727.67
2017-10-13T07:37:48.347Z,100729.87
2017-10-13T07:40:14.315Z,100729.05
2017-10-13T07:42:40.277Z,100732.06
2017-10-13T07:45:06.222Z,100726.94
2017-10-13T07:47:32.196Z,100726.54
2017-10-13T07:49:58.147Z,100725.26
2017-10-13T07:52:24.096Z,100723.58
2017-10-13T07:54:50.036Z,100717.14
2017-10-13T07:57:15.979Z,100717.18
2017-10-13T07:59:41.936Z,100728.30
2017-10-13T08:02:07.876Z,100738.95
2017-10-13T08:04:33.815Z,100735.98
2017-10-13T08:06:59.863Z,100736.05
2017-10-13T08:09:25.795Z,100737.78
2017-10-13T08:11:51.735Z,100735.25
2017-10-13T08:14:17.669Z,100738.70
2017-10-13T08:16:43.622Z,100738.66
2017-10-13T08:19:09.559Z,100736.95
2017-10-13T08:21:35.507Z,100739.52
2017-10-13T08:24:01.445Z,100736.56
2017-10-13T08:26:27.380Z,100741.70
2017-10-13T08:28:53.315Z,100754.88
2017-10-13T08:31:19.285Z,100748.96
2017-10-13T08:33:45.224Z,100748.53
2017-10-13T08:36:11.182Z,100746.43
2017-10-13T08:38:37.107Z,100746.43
2017-10-13T08:41:03.048Z,100750.23
2017-10-13T08:43:28.996Z,100749.81
2017-10-13T08:45:54.939Z,100753.23
2017-10-13T08:48:21.133Z,100746.86
2017-10-13T08:50:47.079Z,100741.77
2017-10-13T08:53:13.031Z,100752.45
2017-10-13T08:55:38.963Z,100750.78
2017-10-13T08:58:04.923Z,100753.77
2017-10-13T09:00:30.869Z,100743.09
2017-10-13T09:02:56.867Z,100740.14
2017-10-13T09:05:22.796Z,100736.73
2017-10-13T09:07:49.014Z,100737.98
2017-10-13T09:10:14.962Z,100734.17
2017-10-13T09:12:40.890Z,100729.47
2017-10-13T09:15:06.861Z,100726.52
2017-10-13T09:17:32.803Z,100727.36
2017-10-13T09:19:59.013Z,100732.48
2017-10-13T09:22:24.970Z,100728.64
2017-10-13T09:24:50.917Z,100724.78
2017-10-13T09:27:16.864Z,100721.39
2017-10-13T09:29:42.817Z,100729.07
2017-10-13T09:32:08.832Z,100730.34
2017-10-13T09:34:34.772Z,100741.44
2017-10-13T09:37:00.713Z,100726.14
2017-10-13T09:39:26.677Z,100731.68
2017-10-13T09:41:52.606Z,100733.38
2017-10-13T09:44:18.561Z,100735.14
2017-10-13T09:46:44.497Z,100735.58
2017-10-13T09:49:10.454Z,100732.59
2017-10-13T09:51:36.383Z,100733.02
2017-10-13T09:54:02.400Z,100732.59
2017-10-13T09:56:28.354Z,100727.92
2017-10-13T09:58:54.282Z,100718.56
2017-10-13T10:01:20.231Z,100723.69
2017-10-13T10:03:46.165Z,100724.11
2017-10-13T10:06:12.120Z,100724.97
2017-10-13T10:08:38.051Z,100720.70
2017-10-13T10:11:03.998Z,100726.21
2017-10-13T10:13:29.936Z,100727.95
2017-10-13T10:15:55.878Z,100727.52
2017-10-13T10:18:21.822Z,100719.45
2017-10-13T10:20:47.766Z,100710.91
2017-10-13T10:23:13.739Z,100719.02
2017-10-13T10:25:39.677Z,100723.77
2017-10-13T10:28:05.625Z,100722.03
2017-10-13T10:30:31.569Z,100721.60
2017-10-13T10:32:57.507Z,100732.27
2017-10-13T10:35:23.434Z,100727.60
2017-10-13T10:37:49.366Z,100723.36
2017-10-13T10:40:15.301Z,100727.20
2017-10-13T10:42:41.247Z,100719.92
2017-10-13T10:45:07.178Z,100721.84
2017-10-13T10:47:33.235Z,100711.44
2017-10-13T10:49:59.227Z,100712.66
2017-10-13T10:52:25.167Z,100709.58
2017-10-13T10:54:51.102Z,100698.00
2017-10-13T10:57:17.051Z,100705.23
2017-10-13T10:59:42.993Z,100701.84
2017-10-13T11:02:08.938Z,100701.90
2017-10-13T11:04:34.907Z,100697.27
2017-10-13T11:07:00.837Z,100696.44
2017-10-13T11:09:26.784Z,100698.60
2017-10-13T11:11:52.737Z,100694.36
2017-10-13T11:14:18.679Z,100701.64
2017-10-13T11:16:44.613Z,100704.66
2017-10-13T11:19:10.547Z,100704.27
2017-10-13T11:21:36.523Z,100711.97
2017-10-13T11:24:02.598Z,100710.64
2017-10-13T11:26:28.583Z,100704.69
2017-10-13T11:28:54.533Z,100709.78
2017-10-13T11:31:20.485Z,100711.12
2017-10-13T11:33:46.434Z,100699.20
2017-10-13T11:36:12.366Z,100701.76
2017-10-13T11:38:38.313Z,100692.38
2017-10-13T11:41:04.299Z,100698.37
2017-10-13T11:43:30.251Z,100701.33
2017-10-13T11:45:56.210Z,100698.37
2017-10-13T11:48:22.144Z,100706.50
2017-10-13T11:50:48.107Z,100709.09
2017-10-13T11:53:14.087Z,100706.11
2017-10-13T11:55:40.139Z,100710.41
2017-10-13T11:58:06.095Z,100703.57
2017-10-13T12:00:32.023Z,100704.42
2017-10-13T12:02:57.982Z,100701.50
2017-10-13T12:05:23.929Z,100698.08
2017-10-13T12:07:49.867Z,100702.80
2017-10-13T12:10:15.831Z,100696.41
2017-10-13T12:12:41.774Z,100694.30
2017-10-13T12:15:07.785Z,100703.27
2017-10-13T12:17:33.735Z,100702.83
2017-10-13T12:19:59.687Z,100713.07
2017-10-13T12:22:25.616Z,100717.36
2017-10-13T12:24:51.684Z,100719.07
2017-10-13T12:27:17.621Z,100710.53
2017-10-13T12:29:43.584Z,100710.14
2017-10-13T12:32:09.539Z,100712.27
2017-10-13T12:34:35.530Z,100716.61
2017-10-13T12:37:01.499Z,100719.95
2017-10-13T12:39:27.447Z,100714.00
2017-10-13T12:41:53.375Z,100716.14
2017-10-13T12:44:19.342Z,100716.17
2017-10-13T12:46:45.285Z,100709.34
2017-10-13T12:49:11.233Z,100704.67
2017-10-13T12:51:37.199Z,100706.38
2017-10-13T12:54:03.145Z,100706.86
2017-10-13T12:56:29.105Z,100701.34
2017-10-13T12:58:55.047Z,100706.03
2017-10-13T13:01:21.001Z,100707.23
2017-10-13T13:03:47.079Z,100708.96
2017-10-13T13:06:13.073Z,100700.34
2017-10-13T13:08:39.008Z,100700.98
2017-10-13T13:11:04.979Z,100700.80
2017-10-13T13:13:30.947Z,100708.56
2017-10-13T13:15:56.893Z,100717.58
2017-10-13T13:18:22.835Z,100720.16
2017-10-13T13:20:48.870Z,100719.26
2017-10-13T13:23:14.838Z,100722.43
2017-10-13T13:25:40.775Z,100716.96
2017-10-13T13:28:06.753Z,100715.80
2017-10-13T13:30:32.719Z,100711.61
2017-10-13T13:32:58.674Z,100714.19
2017-10-13T13:35:24.627Z,100719.31
2017-10-13T13:37:50.581Z,100712.08
2017-10-13T13:40:16.543Z,100710.38
2017-10-13T13:42:42.471Z,100704.86
2017-10-13T13:45:08.440Z,100707.84
2017-10-13T13:47:34.421Z,100707.45
2017-10-13T13:50:00.396Z,100705.31
2017-10-13T13:52:26.394Z,100710.88
2017-10-13T13:54:52.402Z,100713.04
2017-10-13T13:57:18.352Z,100706.27
2017-10-13T13:59:44.292Z,100713.49
2017-10-13T14:02:10.245Z,100707.52
2017-10-13T14:04:36.203Z,100706.67
2017-10-13T14:07:02.143Z,100703.48
2017-10-13T14:09:28.118Z,100699.08
2017-10-13T14:11:54.083Z,100696.00
2017-10-13T14:14:20.028Z,100708.96
2017-10-13T14:16:45.991Z,100707.64
2017-10-13T14:19:11.928Z,100715.63
2017-10-13T14:21:37.880Z,100712.53
2017-10-13T14:24:03.822Z,100711.55
2017-10-13T14:26:29.775Z,100712.69
2017-10-13T14:28:55.727Z,100706.71
2017-10-13T14:31:21.671Z,100705.66
2017-10-13T14:33:47.623Z,100705.42
2017-10-13T14:36:13.558Z,100706.46
2017-10-13T14:38:39.771Z,100701.25
2017-10-13T14:41:05.738Z,100695.44
2017-10-13T14:43:31.700Z,100684.36
2017-10-13T14:45:57.660Z,100688.34
2017-10-13T14:48:23.688Z,100691.16
2017-10-13T14:50:50.483Z,100688.72
2017-10-13T14:53:16.425Z,100683.20
2017-10-13T14:55:42.414Z,100683.38
2017-10-13T14:58:08.375Z,100677.75
2017-10-13T15:00:34.326Z,100676.28
2017-10-13T15:03:00.283Z,100686.00
2017-10-13T15:05:26.226Z,100682.53
2017-10-13T15:07:52.231Z,100682.23
2017-10-13T15:10:18.162Z,100681.81
2017-10-13T15:12:44.193Z,100689.17
2017-10-13T15:15:10.280Z,100680.23
2017-10-13T15:17:36.225Z,100674.42
2017-10-13T15:20:02.164Z,100670.66
2017-10-13T15:22:28.103Z,100670.31
2017-10-13T15:24:54.045Z,100678.11
2017-10-13T15:27:20.380Z,100688.47
2017-10-13T15:29:46.315Z,100698.91
2017-10-13T15:32:12.234Z,100703.34
2017-10-13T15:34:38.170Z,100700.37
2017-10-13T15:37:04.091Z,100707.03
2017-10-13T15:39:30.039Z,100698.48
2017-10-13T15:41:56.003Z,100700.89
2017-10-13T15:44:22.119Z,100698.36
2017-10-13T15:46:48.052Z,100705.43
2017-10-13T15:49:14.001Z,100704.87
2017-10-13T15:51:39.947Z,100703.77
2017-10-13T15:54:05.878Z,100700.50
2017-10-13T15:56:31.805Z,100693.25
2017-10-13T15:58:57.781Z,100695.20
2017-10-13T16:01:23.712Z,100693.60
2017-10-13T16:03:49.669Z,100699.75
2017-10-13T16:06:15.591Z,100707.31
2017-10-13T16:08:41.526Z,100698.13
2017-10-13T16:11:07.471Z,100704.68
2017-10-13T16:13:33.409Z,100704.78
2017-10-13T16:15:59.340Z,100707.03
2017-10-13T16:18:25.334Z,100706.67
2017-10-13T16:20:51.294Z,100718.74
2017-10-13T16:23:17.234Z,100720.09
2017-10-13T16:25:43.179Z,100721.05
2017-10-13T16:28:09.116Z,100722.33
2017-10-13T16:30:35.139Z,100723.71
2017-10-13T16:33:01.078Z,100717.37
2017-10-13T16:35:28.860Z,100719.11
2017-10-13T16:37:54.832Z,100716.61
2017-10-13T16:40:20.781Z,100713.69
2017-10-13T16:42:46.879Z,100718.87
2017-10-13T16:45:12.821Z,100726.17
2017-10-13T16:47:38.928Z,100729.63
2017-10-13T16:50:04.875Z,100729.29
2017-10-13T16:52:30.815Z,100733.59
2017-10-13T16:54:56.766Z,100722.55
2017-10-13T16:57:22.717Z,100717.88
2017-10-13T16:59:48.682Z,100719.63
2017-10-13T17:02:14.614Z,100716.70
2017-10-13T17:04:40.565Z,100715.02
2017-10-13T17:07:06.489Z,100718.89
2017-10-13T17:09:32.434Z,100726.61
2017-10-13T17:11:58.591Z,100725.39
2017-10-13T17:14:24.517Z,100724.56
2017-10-13T17:16:50.450Z,100724.63
2017-10-13T17:19:16.397Z,100729.75
2017-10-13T17:21:42.328Z,100730.23
2017-10-13T17:24:08.467Z,100731.12
2017-10-13T17:26:34.413Z,100736.30
2017-10-13T17:29:00.365Z,100735.47
2017-10-13T17:31:26.295Z,100734.65
2017-10-13T17:33:52.223Z,100737.00
2017-10-13T17:36:18.176Z,100739.66
2017-10-13T17:38:44.127Z,100733.37
2017-10-13T17:41:10.103Z,100728.30
2017-10-13T17:43:36.070Z,100727.05
2017-10-13T17:46:01.998Z,100730.12
2017-10-13T17:48:27.938Z,100730.52
2017-10-13T17:50:54.269Z,100710.69
2017-10-13T17:53:20.366Z,100726.34
2017-10-13T17:55:46.369Z,100730.64
2017-10-13T17:58:12.399Z,100735.79
2017-10-13T18:00:38.428Z,100734.96
2017-10-13T18:03:04.454Z,100744.38
2017-10-13T18:05:30.463Z,100745.27
2017-10-13T18:07:56.570Z,100740.61
2017-10-13T18:10:22.511Z,100736.34
2017-10-13T18:12:48.540Z,100739.77
2017-10-13T18:15:14.557Z,100740.22
2017-10-13T18:17:40.589Z,100734.72
2017-10-13T18:20:06.618Z,100737.25
2017-10-13T18:22:32.632Z,100742.40
2017-10-13T18:24:58.664Z,100736.00
2017-10-13T18:27:24.770Z,100730.05
2017-10-13T18:29:50.823Z,100727.92
2017-10-13T18:32:16.841Z,100727.09
2017-10-13T18:34:43.063Z,100729.69
2017-10-13T18:37:09.082Z,100730.96
2017-10-13T18:39:35.110Z,100731.84
2017-10-13T18:42:01.118Z,100736.53
2017-10-13T18:44:27.328Z,100736.98
2017-10-13T18:46:53.292Z,100741.68
2017-10-13T18:49:19.308Z,100743.81
2017-10-13T18:51:45.329Z,100743.14
2017-10-13T18:54:11.343Z,100742.19
2017-10-13T18:56:37.370Z,100746.80
2017-10-13T18:59:03.411Z,100744.61
2017-10-13T19:01:29.429Z,100744.61
2017-10-13T19:03:55.479Z,100742.91
2017-10-13T19:06:21.472Z,100743.70
2017-10-13T19:08:47.496Z,100746.69
2017-10-13T19:11:13.893Z,100753.72
2017-10-13T19:13:39.855Z,100756.96
2017-10-13T19:16:05.873Z,100753.37
2017-10-13T19:18:31.892Z,100758.98
2017-10-13T19:20:57.824Z,100760.35
2017-10-13T19:23:23.771Z,100759.98
2017-10-13T19:25:49.694Z,100761.25
2017-10-13T19:28:15.632Z,100757.47
2017-10-13T19:30:41.567Z,100753.66
2017-10-13T19:33:07.495Z,100752.00
2017-10-13T19:35:33.457Z,100757.97
2017-10-13T19:37:59.477Z,100751.59
2017-10-13T19:40:25.511Z,100752.45
2017-10-13T19:42:51.527Z,100759.30
2017-10-13T19:45:18.411Z,100758.47
2017-10-13T19:47:44.411Z,100756.80
2017-10-13T19:50:10.424Z,100757.62
2017-10-13T19:52:36.443Z,100762.34
2017-10-13T19:55:02.497Z,100764.49
2017-10-13T19:57:28.440Z,100773.05
2017-10-13T19:59:54.455Z,100762.83
2017-10-13T20:02:20.448Z,100767.55
2017-10-13T20:04:46.465Z,100764.11
2017-10-13T20:07:12.594Z,100770.97
2017-10-13T20:09:38.527Z,100770.98
2017-10-13T20:12:04.527Z,100768.89
2017-10-13T20:14:30.881Z,100762.05
2017-10-13T20:16:56.888Z,100764.64
2017-10-13T20:19:22.915Z,100760.00
2017-10-13T20:21:48.856Z,100766.66
2017-10-13T20:24:14.809Z,100764.31
2017-10-13T20:26:40.751Z,100769.13
2017-10-13T20:29:06.712Z,100770.52
2017-10-13T20:31:32.766Z,100775.86
2017-10-13T20:33:58.700Z,100773.00
2017-10-13T20:36:24.680Z,100778.59
2017-10-13T20:38:50.623Z,100771.81
2017-10-13T20:41:16.630Z,100774.40
2017-10-13T20:43:42.556Z,100776.98
2017-10-13T20:46:08.499Z,100782.09
2017-10-13T20:48:34.429Z,100784.21
2017-10-13T20:51:00.376Z,100785.06
2017-10-13T20:53:26.476Z,100779.14
2017-10-13T20:55:52.626Z,100784.30
2017-10-13T20:58:18.587Z,100780.06
2017-10-13T21:00:44.628Z,100780.94
2017-10-13T21:03:10.561Z,100782.22
2017-10-13T21:05:36.513Z,100783.08
2017-10-13T21:08:02.584Z,100780.85
2017-10-13T21:10:28.524Z,100781.23
2017-10-13T21:12:54.466Z,100779.06
2017-10-13T21:15:20.408Z,100778.67
2017-10-13T21:17:46.352Z,100780.38
2017-10-13T21:20:12.426Z,100775.23
2017-10-13T21:22:38.366Z,100785.02
2017-10-13T21:25:04.301Z,100776.86
2017-10-13T21:27:30.246Z,100781.02
2017-10-13T21:29:56.405Z,100790.66
2017-10-13T21:32:22.355Z,100784.02
2017-10-13T21:34:48.280Z,100787.52
2017-10-13T21:37:14.232Z,100787.17
2017-10-13T21:39:40.168Z,100785.92
2017-10-13T21:42:06.131Z,100791.06
2017-10-13T21:44:32.073Z,100794.47
2017-10-13T21:46:57.993Z,100792.41
2017-10-13T21:49:23.918Z,100786.02
2017-10-13T21:51:49.848Z,100786.47
2017-10-13T21:54:15.818Z,100784.76
2017-10-13T21:56:41.764Z,100781.34
2017-10-13T21:59:07.727Z,100790.75
2017-10-13T22:01:33.676Z,100782.66
2017-10-13T22:03:59.634Z,100786.08
2017-10-13T22:06:25.600Z,100791.22
2017-10-13T22:08:51.540Z,100782.74
2017-10-13T22:11:17.469Z,100792.95
2017-10-13T22:13:43.404Z,100796.33
2017-10-13T22:16:09.336Z,100791.67
2017-10-13T22:18:35.268Z,100792.13
2017-10-13T22:21:01.208Z,100794.67
2017-10-13T22:23:27.152Z,100794.67
2017-10-13T22:25:53.078Z,100795.11
2017-10-13T22:28:19.012Z,100793.82
2017-10-13T22:30:44.943Z,100792.14
2017-10-13T22:33:10.886Z,100793.84
2017-10-13T22:35:36.924Z,100798.96
2017-10-13T22:38:02.891Z,100797.71
2017-10-13T22:40:28.824Z,100795.58
2017-10-13T22:42:54.751Z,100798.12
2017-10-13T22:45:20.692Z,100802.39
2017-10-13T22:47:46.625Z,100800.72
2017-10-13T22:50:12.598Z,100797.75
2017-10-13T22:52:38.520Z,100803.30
2017-10-13T22:55:04.459Z,100811.37
2017-10-13T22:57:30.647Z,100813.53
2017-10-13T22:59:56.568Z,100814.39
2017-10-13T23:02:22.530Z,100819.07
2017-10-13T23:04:48.478Z,100813.95
2017-10-13T23:07:14.428Z,100815.69
2017-10-13T23:09:40.360Z,100819.94
2017-10-13T23:12:06.301Z,100823.35
2017-10-13T23:14:32.244Z,100816.10
2017-10-13T23:16:58.171Z,100823.35
2017-10-13T23:19:24.114Z,100825.08
2017-10-13T23:21:50.054Z,100822.09
2017-10-13T23:24:15.983Z,100826.81
2017-10-13T23:26:42.057Z,100828.52
2017-10-13T23:29:08.003Z,100823.40
2017-10-13T23:31:33.959Z,100825.53
2017-10-13T23:33:59.911Z,100824.25
2017-10-13T23:36:25.836Z,100829.36
2017-10-13T23:38:51.780Z,100831.48
2017-10-13T23:41:17.703Z,100837.03
2017-10-13T23:43:43.635Z,100832.34
2017-10-13T23:46:09.591Z,100838.34
2017-10-13T23:48:35.530Z,100839.63
2017-10-13T23:51:01.480Z,100841.32
2017-10-13T23:53:27.411Z,100843.45
2017-10-13T23:55:53.350Z,100843.03
2017-10-13T23:58:19.285Z,100840.06
